Terminal Aerodrome Forecast
Issued by NWS

Home | Current Version | Previous Version | Text Only | Print | Product List | Glossary On
Versions: 1 2 3 4 5 6 7 8 9 10 11 12 13 14 15 16 17 18 19 20 21 22 23
000
FTUS43 KAPX 020209 AAA
TAFAPN
TAF AMD
KAPN 020209Z 0202/0224 VRB03KT 5SM BR SKC
     FM020500 00000KT 3SM BR SKC
     FM020900 00000KT 1/2SM FG SCT003 SCT120
     FM021330 VRB03KT P6SM SCT025
     FM021900 10007KT P6SM VCSH BKN040=

USA.gov is the U.S. government's official web portal to all federal, state and local government web resources and services.